20OK weather

Will and Wiley's Aerodrome
Claremore, Oklahoma, United States

Public forecast

Using degrees Fahrenheit for public forecast. Weather courtesy of forecast.io.

Closest aviation weather report (METAR) to Will and Wiley's Aerodrome

Closest report is Claremore Regional Airport, 8.3 nm (15.4 km) ESE. Retrieved 2019/10/19 08:35 UTC (22 minutes ago):

KGCM 190835Z AUTO 16009KT 10SM BKN100 13/09 A2975 RMK AO2

Closest aviation forecast (TAF) to Will and Wiley's Aerodrome

Closest forecast is Tulsa International Airport, 14.0 nm (25.8 km) WSW. Retrieved 2019/10/19 06:22 UTC (3 hours ago):

TAF KTUL 190520Z 1906/2006 16012KT P6SM SCT100 FM190800 16010KT P6SM -SHRA BKN100 TEMPO 1908/1912 6SM -TSRA BKN050CB FM191200 23006KT P6SM BKN100 FM191700 34008KT P6SM SCT050 FM200000 36006KT P6SM SKC